createdAt,value
2018-03-20T00:00:01.183Z,53.60
2018-03-20T00:02:27.674Z,53.80
2018-03-20T00:07:25.801Z,53.90
2018-03-20T00:09:53.028Z,53.90
2018-03-20T00:12:19.522Z,53.90
2018-03-20T00:14:46.004Z,53.90
2018-03-20T00:17:13.041Z,53.90
2018-03-20T00:19:39.502Z,53.90
2018-03-20T00:22:05.986Z,53.90
2018-03-20T00:24:33.212Z,53.90
2018-03-20T00:26:59.694Z,54.00
2018-03-20T00:29:26.180Z,53.90
2018-03-20T00:31:53.422Z,54.00
2018-03-20T00:34:19.879Z,54.00
2018-03-20T00:36:46.366Z,54.00
2018-03-20T00:39:13.594Z,53.90
2018-03-20T00:41:40.066Z,53.90
2018-03-20T00:44:06.535Z,53.90
2018-03-20T00:46:33.020Z,54.00
2018-03-20T00:48:59.483Z,54.00
2018-03-20T00:51:26.747Z,53.90
2018-03-20T00:53:53.255Z,54.00
2018-03-20T00:56:19.724Z,53.90
2018-03-20T00:58:46.189Z,54.00
2018-03-20T01:01:12.651Z,54.00
2018-03-20T01:03:39.140Z,54.00
2018-03-20T01:06:05.617Z,53.90
2018-03-20T01:08:32.878Z,53.90
2018-03-20T01:11:00.106Z,54.00
2018-03-20T01:13:26.579Z,53.90
2018-03-20T01:15:53.045Z,53.90
2018-03-20T01:18:19.517Z,53.90
2018-03-20T01:20:46.005Z,53.90
2018-03-20T01:23:13.262Z,53.90
2018-03-20T01:25:39.722Z,53.90
2018-03-20T01:28:06.983Z,53.90
2018-03-20T01:30:33.446Z,53.90
2018-03-20T01:32:59.947Z,53.90
2018-03-20T01:35:26.407Z,53.90
2018-03-20T01:37:52.885Z,53.80
2018-03-20T01:40:19.366Z,53.90
2018-03-20T01:42:45.858Z,53.80
2018-03-20T01:45:13.090Z,53.90
2018-03-20T01:47:39.579Z,53.90
2018-03-20T01:50:06.110Z,53.90
2018-03-20T01:52:32.565Z,53.90
2018-03-20T01:54:59.065Z,53.90
2018-03-20T01:57:26.305Z,53.80
2018-03-20T01:59:52.787Z,53.80
2018-03-20T02:02:19.233Z,53.80
2018-03-20T02:04:45.735Z,53.80
2018-03-20T02:07:12.237Z,53.80
2018-03-20T02:09:38.791Z,53.80
2018-03-20T02:12:05.347Z,53.80
2018-03-20T02:14:31.836Z,53.80
2018-03-20T02:16:58.281Z,53.80
2018-03-20T02:19:24.767Z,53.80
2018-03-20T02:21:51.229Z,53.80
2018-03-20T02:24:17.719Z,53.80
2018-03-20T02:26:44.195Z,53.80
2018-03-20T02:29:10.672Z,53.80
2018-03-20T02:31:37.135Z,53.70
2018-03-20T02:34:03.600Z,53.70
2018-03-20T02:36:30.057Z,53.70
2018-03-20T02:38:56.520Z,53.80
2018-03-20T02:41:23.004Z,53.80
2018-03-20T02:43:50.242Z,53.80
2018-03-20T02:46:16.717Z,53.80
2018-03-20T02:48:43.183Z,53.70
2018-03-20T02:51:09.688Z,53.70
2018-03-20T02:53:36.145Z,53.70
2018-03-20T02:56:02.621Z,53.60
2018-03-20T02:58:29.083Z,54.10
2018-03-20T03:00:55.547Z,53.60
2018-03-20T03:03:22.022Z,53.60
2018-03-20T03:05:48.467Z,53.50
2018-03-20T03:08:14.985Z,53.50
2018-03-20T03:10:41.437Z,53.60
2018-03-20T03:13:08.674Z,53.60
2018-03-20T03:15:35.129Z,53.60
2018-03-20T03:18:01.602Z,53.50
2018-03-20T03:20:28.090Z,53.60
2018-03-20T03:22:54.592Z,53.60
2018-03-20T03:25:21.074Z,53.50
2018-03-20T03:27:47.533Z,53.50
2018-03-20T03:30:14.065Z,53.50
2018-03-20T03:32:40.541Z,53.50
2018-03-20T03:35:07.017Z,53.50
2018-03-20T03:37:33.483Z,53.40
2018-03-20T03:40:00.712Z,53.50
2018-03-20T03:42:27.188Z,53.50
2018-03-20T03:44:53.664Z,53.40
2018-03-20T03:47:20.141Z,53.40
2018-03-20T03:49:47.371Z,53.40
2018-03-20T03:52:13.856Z,53.40
2018-03-20T03:54:40.307Z,53.40
2018-03-20T03:57:06.809Z,53.30
2018-03-20T03:59:33.258Z,53.40
2018-03-20T04:02:00.523Z,53.30
2018-03-20T04:04:27.000Z,53.30
2018-03-20T04:06:54.230Z,53.40
2018-03-20T04:09:20.716Z,53.40
2018-03-20T04:11:47.175Z,53.30
2018-03-20T04:14:14.417Z,53.30
2018-03-20T04:16:40.873Z,53.30
2018-03-20T04:19:07.344Z,53.30
2018-03-20T04:21:33.817Z,53.30
2018-03-20T04:24:00.307Z,53.30
2018-03-20T04:26:26.769Z,53.30
2018-03-20T04:28:53.230Z,53.30
2018-03-20T04:31:19.691Z,53.30
2018-03-20T04:33:46.155Z,53.30
2018-03-20T04:36:12.661Z,53.30
2018-03-20T04:38:39.129Z,53.40
2018-03-20T04:41:05.619Z,53.40
2018-03-20T04:43:32.097Z,53.30
2018-03-20T04:45:58.577Z,53.30
2018-03-20T04:48:25.031Z,53.30
2018-03-20T04:50:51.487Z,53.30
2018-03-20T04:53:17.965Z,53.20
2018-03-20T04:55:44.427Z,53.20
2018-03-20T04:58:10.872Z,53.20
2018-03-20T05:00:37.321Z,53.10
2018-03-20T05:03:03.821Z,53.00
2018-03-20T05:05:31.047Z,52.90
2018-03-20T05:07:57.527Z,52.90
2018-03-20T05:10:23.973Z,52.80
2018-03-20T05:12:50.427Z,52.80
2018-03-20T05:15:16.884Z,52.80
2018-03-20T05:17:43.346Z,52.80
2018-03-20T05:20:09.805Z,52.70
2018-03-20T05:22:36.280Z,52.70
2018-03-20T05:25:02.795Z,52.60
2018-03-20T05:27:29.255Z,52.70
2018-03-20T05:29:55.733Z,52.60
2018-03-20T05:32:22.199Z,52.60
2018-03-20T05:34:48.662Z,52.60
2018-03-20T05:37:15.165Z,52.60
2018-03-20T05:39:42.405Z,52.60
2018-03-20T05:42:08.881Z,52.50
2018-03-20T05:44:35.325Z,52.50
2018-03-20T05:47:01.843Z,52.50
2018-03-20T05:49:28.315Z,52.50
2018-03-20T05:51:54.761Z,52.70
2018-03-20T05:54:21.208Z,52.70
2018-03-20T05:56:47.671Z,52.30
2018-03-20T05:59:14.157Z,52.40
2018-03-20T06:01:40.625Z,52.30
2018-03-20T06:04:07.140Z,52.10
2018-03-20T06:06:33.598Z,52.10
2018-03-20T06:09:00.068Z,52.20
2018-03-20T06:11:26.512Z,52.30
2018-03-20T06:13:52.960Z,52.40
2018-03-20T06:16:20.170Z,52.30
2018-03-20T06:18:46.798Z,52.30
2018-03-20T06:21:13.291Z,52.30
2018-03-20T06:23:39.738Z,52.30
2018-03-20T06:26:06.228Z,51.10
2018-03-20T06:28:32.711Z,52.50
2018-03-20T06:30:59.167Z,52.50
2018-03-20T06:33:25.654Z,53.00
2018-03-20T06:35:52.930Z,52.40
2018-03-20T06:38:20.167Z,52.00
2018-03-20T06:40:46.637Z,52.00
2018-03-20T06:43:13.127Z,51.30
2018-03-20T06:45:39.605Z,51.40
2018-03-20T06:48:06.102Z,53.00
2018-03-20T06:50:32.569Z,51.60
2018-03-20T06:52:59.068Z,51.90
2018-03-20T06:55:25.548Z,53.30
2018-03-20T06:57:52.030Z,53.30
2018-03-20T07:00:18.531Z,53.20
2018-03-20T07:02:45.764Z,53.20
2018-03-20T07:05:12.255Z,53.20
2018-03-20T07:07:39.485Z,46.10
2018-03-20T07:10:05.965Z,46.00
2018-03-20T07:12:32.430Z,48.60
2018-03-20T07:14:58.885Z,48.00
2018-03-20T07:17:25.336Z,48.30
2018-03-20T07:19:51.791Z,50.10
2018-03-20T07:22:18.266Z,50.30
2018-03-20T07:24:44.737Z,49.60
2018-03-20T07:27:12.231Z,49.70
2018-03-20T07:29:38.677Z,49.70
2018-03-20T07:32:05.913Z,50.10
2018-03-20T07:34:32.415Z,50.10
2018-03-20T07:36:58.866Z,50.40
2018-03-20T07:39:25.349Z,51.00
2018-03-20T07:41:52.564Z,50.70
2018-03-20T07:44:19.044Z,50.80
2018-03-20T07:46:45.492Z,50.80
2018-03-20T07:49:12.031Z,51.00
2018-03-20T07:51:38.502Z,51.10
2018-03-20T07:54:04.982Z,51.10
2018-03-20T07:56:31.455Z,51.20
2018-03-20T07:58:58.710Z,51.40
2018-03-20T08:01:25.176Z,51.50
2018-03-20T08:03:51.638Z,51.60
2018-03-20T08:06:18.109Z,51.60
2018-03-20T08:08:44.570Z,51.70
2018-03-20T08:11:11.061Z,51.80
2018-03-20T08:13:37.529Z,51.80
2018-03-20T08:16:04.020Z,51.80
2018-03-20T08:18:30.478Z,51.90
2018-03-20T08:20:56.934Z,52.10
2018-03-20T08:23:23.403Z,52.10
2018-03-20T08:25:49.866Z,52.10
2018-03-20T08:28:16.312Z,52.10
2018-03-20T08:30:42.791Z,52.20
2018-03-20T08:33:09.269Z,52.30
2018-03-20T08:35:36.531Z,51.60
2018-03-20T08:38:03.173Z,51.60
2018-03-20T08:40:29.643Z,51.50
2018-03-20T08:42:56.108Z,51.80
2018-03-20T08:45:22.567Z,52.10
2018-03-20T08:47:49.038Z,52.20
2018-03-20T08:50:16.324Z,52.20
2018-03-20T08:52:43.551Z,52.20
2018-03-20T08:55:10.043Z,52.20
2018-03-20T08:57:36.483Z,52.30
2018-03-20T09:00:02.972Z,52.30
2018-03-20T09:02:30.206Z,52.40
2018-03-20T09:04:56.681Z,52.30
2018-03-20T09:07:23.183Z,54.00
2018-03-20T09:09:49.646Z,53.60
2018-03-20T09:12:16.162Z,53.50
2018-03-20T09:14:42.655Z,53.40
2018-03-20T09:17:09.970Z,53.30
2018-03-20T09:19:36.446Z,53.30
2018-03-20T09:22:03.266Z,53.50
2018-03-20T09:24:29.848Z,53.60
2018-03-20T09:26:56.206Z,53.60
2018-03-20T09:29:22.706Z,53.70
2018-03-20T09:31:49.181Z,53.70
2018-03-20T09:34:16.442Z,53.80
2018-03-20T09:36:42.930Z,53.80
2018-03-20T09:39:09.401Z,53.90
2018-03-20T09:41:35.878Z,53.90
2018-03-20T09:44:02.363Z,53.90
2018-03-20T09:46:28.832Z,54.00
2018-03-20T09:48:55.317Z,54.10
2018-03-20T09:51:22.572Z,54.10
2018-03-20T09:53:49.101Z,54.10
2018-03-20T09:56:15.625Z,54.20
2018-03-20T09:58:42.106Z,54.10
2018-03-20T10:01:08.646Z,54.10
2018-03-20T10:03:35.095Z,54.10
2018-03-20T10:06:01.591Z,53.60
2018-03-20T10:08:28.040Z,53.70
2018-03-20T10:10:54.484Z,53.80
2018-03-20T10:13:20.939Z,54.00
2018-03-20T10:15:47.413Z,54.00
2018-03-20T10:18:13.877Z,54.10
2018-03-20T10:20:40.361Z,54.10
2018-03-20T10:23:06.837Z,54.10
2018-03-20T10:25:33.304Z,54.10
2018-03-20T10:27:59.801Z,54.10
2018-03-20T10:30:26.258Z,54.10
2018-03-20T10:32:52.777Z,54.20
2018-03-20T10:35:19.261Z,54.20
2018-03-20T10:37:45.790Z,54.30
2018-03-20T10:40:12.268Z,54.20
2018-03-20T10:42:39.476Z,54.40
2018-03-20T10:45:05.939Z,54.30
2018-03-20T10:47:32.412Z,54.40
2018-03-20T10:49:58.880Z,54.30
2018-03-20T10:52:25.357Z,54.40
2018-03-20T10:54:51.848Z,54.50
2018-03-20T10:57:19.061Z,54.50
2018-03-20T10:59:45.559Z,54.50
2018-03-20T11:02:12.037Z,54.50
2018-03-20T11:04:39.321Z,54.50
2018-03-20T11:07:05.792Z,54.40
2018-03-20T11:09:32.237Z,54.50
2018-03-20T11:11:59.458Z,54.60
2018-03-20T11:14:25.924Z,54.50
2018-03-20T11:16:52.410Z,54.60
2018-03-20T11:19:18.867Z,54.60
2018-03-20T11:21:45.353Z,54.60
2018-03-20T11:24:11.878Z,54.60
2018-03-20T11:26:38.358Z,54.60
2018-03-20T11:29:05.581Z,54.60
2018-03-20T11:31:32.029Z,54.60
2018-03-20T11:33:58.491Z,54.60
2018-03-20T11:36:24.960Z,54.60
2018-03-20T11:38:51.432Z,54.60
2018-03-20T11:41:17.889Z,54.70
2018-03-20T11:43:44.385Z,54.70
2018-03-20T11:46:11.619Z,54.70
2018-03-20T11:48:38.144Z,54.70
2018-03-20T11:51:04.632Z,54.60
2018-03-20T11:53:31.106Z,54.60
2018-03-20T11:55:57.571Z,54.70
2018-03-20T11:58:24.028Z,54.70
2018-03-20T12:00:50.496Z,54.70
2018-03-20T12:03:16.990Z,54.60
2018-03-20T12:05:44.249Z,54.60
2018-03-20T12:08:10.706Z,54.60
2018-03-20T12:10:37.966Z,54.70
2018-03-20T12:13:04.674Z,54.60
2018-03-20T12:15:31.125Z,54.70
2018-03-20T12:17:58.443Z,54.80
2018-03-20T12:20:27.253Z,54.80
2018-03-20T12:22:53.736Z,54.80
2018-03-20T12:25:20.315Z,54.80
2018-03-20T12:27:46.735Z,54.80
2018-03-20T12:30:13.198Z,54.80
2018-03-20T12:32:39.710Z,53.80
2018-03-20T12:35:06.176Z,52.80
2018-03-20T12:37:33.582Z,52.10
2018-03-20T12:40:00.057Z,52.10
2018-03-20T12:42:26.522Z,51.80
2018-03-20T12:44:52.996Z,51.30
2018-03-20T12:47:19.474Z,50.60
2018-03-20T12:49:46.723Z,50.50
2018-03-20T12:52:13.189Z,51.10
2018-03-20T12:54:39.706Z,50.20
2018-03-20T12:57:06.170Z,49.70
2018-03-20T12:59:32.729Z,49.60
2018-03-20T13:01:59.192Z,50.00
2018-03-20T13:04:25.640Z,50.30
2018-03-20T13:06:52.113Z,50.70
2018-03-20T13:09:18.675Z,51.10
2018-03-20T13:11:45.151Z,51.30
2018-03-20T13:14:11.633Z,51.40
2018-03-20T13:16:38.877Z,52.10
2018-03-20T13:19:05.627Z,52.10
2018-03-20T13:21:32.169Z,52.20
2018-03-20T13:23:58.619Z,53.40
2018-03-20T13:26:25.129Z,53.50
2018-03-20T13:28:51.613Z,53.10
2018-03-20T13:31:18.079Z,52.70
2018-03-20T13:33:45.532Z,52.70
2018-03-20T13:36:12.087Z,52.70
2018-03-20T13:38:39.346Z,52.80
2018-03-20T13:41:06.074Z,52.80
2018-03-20T13:43:32.831Z,52.80
2018-03-20T13:45:59.612Z,52.80
2018-03-20T13:48:26.538Z,52.80
2018-03-20T13:50:53.338Z,52.90
2018-03-20T13:53:20.192Z,53.00
2018-03-20T13:55:46.988Z,52.90
2018-03-20T13:58:14.031Z,52.90
2018-03-20T14:00:41.120Z,53.00
2018-03-20T14:03:09.048Z,53.20
2018-03-20T14:05:36.249Z,53.10
2018-03-20T14:08:03.082Z,53.30
2018-03-20T14:10:29.825Z,53.20
2018-03-20T14:12:56.873Z,53.30
2018-03-20T14:15:23.734Z,53.30
2018-03-20T14:17:50.519Z,53.40
2018-03-20T14:20:17.398Z,53.40
2018-03-20T14:22:44.198Z,53.40
2018-03-20T14:25:11.740Z,53.30
2018-03-20T14:27:38.771Z,53.40
2018-03-20T14:30:06.917Z,53.50
2018-03-20T14:32:36.077Z,53.50
2018-03-20T14:35:02.962Z,53.60
2018-03-20T14:37:29.757Z,44.60
2018-03-20T14:39:56.528Z,49.90
2018-03-20T14:42:23.372Z,50.60
2018-03-20T14:44:50.159Z,51.10
2018-03-20T14:47:17.043Z,51.20
2018-03-20T14:49:43.813Z,51.20
2018-03-20T14:52:10.660Z,52.70
2018-03-20T14:54:37.415Z,51.70
2018-03-20T14:57:04.740Z,51.40
2018-03-20T14:59:31.583Z,51.40
2018-03-20T15:01:58.435Z,51.60
2018-03-20T15:04:24.998Z,51.80
2018-03-20T15:06:52.871Z,51.90
2018-03-20T15:09:19.861Z,51.90
2018-03-20T15:11:46.850Z,52.10
2018-03-20T15:14:14.793Z,52.20
2018-03-20T15:16:41.800Z,52.20
2018-03-20T15:19:09.070Z,52.30
2018-03-20T15:21:37.373Z,52.50
2018-03-20T15:24:04.640Z,52.50
2018-03-20T15:26:31.099Z,52.40
2018-03-20T15:28:57.696Z,52.50
2018-03-20T15:31:24.179Z,52.50
2018-03-20T15:33:50.709Z,52.50
2018-03-20T15:36:17.335Z,52.60
2018-03-20T15:38:44.594Z,52.70
2018-03-20T15:41:11.196Z,52.60
2018-03-20T15:43:38.515Z,52.70
2018-03-20T15:46:05.022Z,52.70
2018-03-20T15:48:32.411Z,52.70
2018-03-20T15:50:59.067Z,52.70
2018-03-20T15:53:25.737Z,52.70
2018-03-20T15:55:52.406Z,52.80
2018-03-20T15:58:19.120Z,52.70
2018-03-20T16:00:46.575Z,52.80
2018-03-20T16:03:14.351Z,52.80
2018-03-20T16:05:41.004Z,52.80
2018-03-20T16:08:07.695Z,52.80
2018-03-20T16:10:34.374Z,52.50
2018-03-20T16:13:01.674Z,52.50
2018-03-20T16:15:28.208Z,52.50
2018-03-20T16:17:54.913Z,52.50
2018-03-20T16:20:21.450Z,52.50
2018-03-20T16:22:48.020Z,52.60
2018-03-20T16:25:14.727Z,52.70
2018-03-20T16:27:41.373Z,52.80
2018-03-20T16:30:07.971Z,53.50
2018-03-20T16:32:34.514Z,53.70
2018-03-20T16:35:01.078Z,53.10
2018-03-20T16:37:27.592Z,52.70
2018-03-20T16:39:54.232Z,52.50
2018-03-20T16:42:20.956Z,52.50
2018-03-20T16:44:47.443Z,52.60
2018-03-20T16:47:13.956Z,52.60
2018-03-20T16:49:41.227Z,52.80
2018-03-20T16:52:08.548Z,52.90
2018-03-20T16:54:35.038Z,52.90
2018-03-20T16:57:01.550Z,53.00
2018-03-20T16:59:28.184Z,53.10
2018-03-20T17:01:54.719Z,53.10
2018-03-20T17:04:21.212Z,53.20
2018-03-20T17:06:47.691Z,53.20
2018-03-20T17:09:14.221Z,53.40
2018-03-20T17:11:40.717Z,53.50
2018-03-20T17:14:07.190Z,53.60
2018-03-20T17:16:33.687Z,53.70
2018-03-20T17:19:00.152Z,54.00
2018-03-20T17:21:26.659Z,53.90
2018-03-20T17:23:53.163Z,53.80
2018-03-20T17:26:20.608Z,54.00
2018-03-20T17:28:47.131Z,53.90
2018-03-20T17:31:14.451Z,54.20
2018-03-20T17:33:41.004Z,54.20
2018-03-20T17:36:08.247Z,54.00
2018-03-20T17:38:34.768Z,54.00
2018-03-20T17:41:01.414Z,54.00
2018-03-20T17:43:27.933Z,54.00
2018-03-20T17:45:55.181Z,54.20
2018-03-20T17:48:21.709Z,54.20
2018-03-20T17:50:48.178Z,54.30
2018-03-20T17:53:14.679Z,54.30
2018-03-20T17:55:41.201Z,54.30
2018-03-20T17:58:07.649Z,54.40
2018-03-20T18:00:34.144Z,54.50
2018-03-20T18:03:00.628Z,53.40
2018-03-20T18:05:27.437Z,54.20
2018-03-20T18:07:54.032Z,53.90
2018-03-20T18:10:20.675Z,53.90
2018-03-20T18:12:47.540Z,53.80
2018-03-20T18:15:14.238Z,53.80
2018-03-20T18:17:41.338Z,54.00
2018-03-20T18:20:09.082Z,54.20
2018-03-20T18:22:36.098Z,54.10
2018-03-20T18:25:03.217Z,54.20
2018-03-20T18:27:29.751Z,54.30
2018-03-20T18:29:56.624Z,54.30
2018-03-20T18:32:23.343Z,54.40
2018-03-20T18:34:49.875Z,54.40
2018-03-20T18:37:16.827Z,54.50
2018-03-20T18:39:43.894Z,54.50
2018-03-20T18:42:11.031Z,54.50
2018-03-20T18:44:38.932Z,54.60
2018-03-20T18:47:06.110Z,54.50
2018-03-20T18:49:33.239Z,54.60
2018-03-20T18:52:00.442Z,54.70
2018-03-20T18:54:27.433Z,54.70
2018-03-20T18:56:55.299Z,54.80
2018-03-20T18:59:23.098Z,54.80
2018-03-20T19:01:50.202Z,54.80
2018-03-20T19:04:17.374Z,54.80
2018-03-20T19:06:44.476Z,54.80
2018-03-20T19:09:11.610Z,54.90
2018-03-20T19:11:39.366Z,55.00
2018-03-20T19:14:06.636Z,55.00
2018-03-20T19:16:33.699Z,55.00
2018-03-20T19:19:00.695Z,55.00
2018-03-20T19:21:27.865Z,55.00
2018-03-20T19:23:54.890Z,55.00
2018-03-20T19:26:22.005Z,54.50
2018-03-20T19:28:49.058Z,53.20
2018-03-20T19:31:16.203Z,54.80
2018-03-20T19:33:43.787Z,54.70
2018-03-20T19:36:10.945Z,54.50
2018-03-20T19:38:37.981Z,54.50
2018-03-20T19:41:05.105Z,54.50
2018-03-20T19:43:32.274Z,54.50
2018-03-20T19:45:59.391Z,54.60
2018-03-20T19:48:26.565Z,54.70
2018-03-20T19:50:53.612Z,54.70
2018-03-20T19:53:20.719Z,54.70
2018-03-20T19:55:47.780Z,54.70
2018-03-20T19:58:14.777Z,54.80
2018-03-20T20:00:41.930Z,54.80
2018-03-20T20:03:09.052Z,54.80
2018-03-20T20:05:37.082Z,55.00
2018-03-20T20:08:04.266Z,54.90
2018-03-20T20:10:31.488Z,55.00
2018-03-20T20:12:58.599Z,55.00
2018-03-20T20:15:25.780Z,55.00
2018-03-20T20:17:52.866Z,55.00
2018-03-20T20:20:20.049Z,55.00
2018-03-20T20:22:47.308Z,55.00
2018-03-20T20:25:14.466Z,55.00
2018-03-20T20:27:41.651Z,55.10
2018-03-20T20:30:08.682Z,55.10
2018-03-20T20:32:36.584Z,55.10
2018-03-20T20:35:03.767Z,55.10
2018-03-20T20:37:30.835Z,55.10
2018-03-20T20:39:57.881Z,55.20
2018-03-20T20:42:24.926Z,55.30
2018-03-20T20:44:52.127Z,53.20
2018-03-20T20:47:19.653Z,47.10
2018-03-20T20:49:46.702Z,47.00
2018-03-20T20:52:13.713Z,47.70
2018-03-20T20:54:40.781Z,38.20
2018-03-20T20:57:07.833Z,38.90
2018-03-20T20:59:34.892Z,40.90
2018-03-20T21:02:02.831Z,43.70
2018-03-20T21:04:29.863Z,43.70
2018-03-20T21:06:57.677Z,45.70
2018-03-20T21:09:24.631Z,45.70
2018-03-20T21:11:51.584Z,46.10
2018-03-20T21:14:19.390Z,45.00
2018-03-20T21:16:46.436Z,44.90
2018-03-20T21:19:13.278Z,46.70
2018-03-20T21:21:39.882Z,47.30
2018-03-20T21:24:06.601Z,47.70
2018-03-20T21:26:33.137Z,47.70
2018-03-20T21:28:59.729Z,47.90
2018-03-20T21:31:27.020Z,47.90
2018-03-20T21:33:54.290Z,47.70
2018-03-20T21:36:21.569Z,47.70
2018-03-20T21:38:48.032Z,47.80
2018-03-20T21:41:15.343Z,47.70
2018-03-20T21:43:41.789Z,47.70
2018-03-20T21:46:08.279Z,47.70
2018-03-20T21:48:34.759Z,47.70
2018-03-20T21:51:01.281Z,47.70
2018-03-20T21:53:27.747Z,47.70
2018-03-20T21:55:54.233Z,47.60
2018-03-20T21:58:20.726Z,47.60
2018-03-20T22:00:47.957Z,47.70
2018-03-20T22:03:14.512Z,47.70
2018-03-20T22:05:41.010Z,47.70
2018-03-20T22:08:08.276Z,47.70
2018-03-20T22:10:34.738Z,47.70
2018-03-20T22:13:01.266Z,47.80
2018-03-20T22:15:27.751Z,47.80
2018-03-20T22:17:54.354Z,47.90
2018-03-20T22:20:20.814Z,47.80
2018-03-20T22:22:47.286Z,47.90
2018-03-20T22:25:13.740Z,48.00
2018-03-20T22:27:40.376Z,48.10
2018-03-20T22:30:06.985Z,48.10
2018-03-20T22:32:33.462Z,48.20
2018-03-20T22:34:59.959Z,48.20
2018-03-20T22:37:26.427Z,48.20
2018-03-20T22:39:52.873Z,48.10
2018-03-20T22:42:20.099Z,48.40
2018-03-20T22:44:46.544Z,48.40
2018-03-20T22:47:13.781Z,48.80
2018-03-20T22:49:41.025Z,48.40
2018-03-20T22:52:07.514Z,48.40
2018-03-20T22:54:34.748Z,48.50
2018-03-20T22:57:01.239Z,48.50
2018-03-20T22:59:28.471Z,48.70
2018-03-20T23:01:54.981Z,48.60
2018-03-20T23:04:21.445Z,48.60
2018-03-20T23:06:49.024Z,48.70
2018-03-20T23:09:15.543Z,48.60
2018-03-20T23:11:42.020Z,48.60
2018-03-20T23:14:08.487Z,48.50
2018-03-20T23:16:35.719Z,48.30
2018-03-20T23:19:02.193Z,48.30
2018-03-20T23:21:28.675Z,48.30
2018-03-20T23:23:55.155Z,48.20
2018-03-20T23:26:22.385Z,46.80
2018-03-20T23:28:48.880Z,46.80
2018-03-20T23:31:16.318Z,47.30
2018-03-20T23:33:42.781Z,47.30
2018-03-20T23:36:09.411Z,47.30
2018-03-20T23:38:35.900Z,47.20
2018-03-20T23:41:02.387Z,47.30
2018-03-20T23:43:28.856Z,47.00
2018-03-20T23:45:56.123Z,46.90
2018-03-20T23:48:22.604Z,46.80
2018-03-20T23:50:49.835Z,46.60
2018-03-20T23:53:16.393Z,46.60
2018-03-20T23:55:43.010Z,46.60
2018-03-20T23:58:09.477Z,46.50
